createdAt,value
2022-11-18T00:00:35.975Z,0.52
2022-11-18T00:03:02.459Z,0.60
2022-11-18T00:05:28.915Z,0.77
2022-11-18T00:07:55.401Z,0.70
2022-11-18T00:10:21.891Z,0.50
2022-11-18T00:13:06.619Z,0.70
2022-11-18T00:15:33.076Z,0.50
2022-11-18T00:17:59.540Z,0.50
2022-11-18T00:20:26.174Z,0.60
2022-11-18T00:22:52.723Z,0.60
2022-11-18T00:25:19.213Z,0.50
2022-11-18T00:27:45.679Z,0.50
2022-11-18T00:30:12.185Z,0.70
2022-11-18T00:32:38.651Z,0.65
2022-11-18T00:35:05.613Z,0.50
2022-11-18T00:37:32.056Z,0.50
2022-11-18T00:39:58.524Z,0.60
2022-11-18T00:42:43.622Z,0.60
2022-11-18T00:45:10.411Z,0.50
2022-11-18T00:47:36.871Z,0.60
2022-11-18T00:50:03.546Z,0.60
2022-11-18T00:52:30.009Z,0.50
2022-11-18T00:54:56.513Z,0.60
2022-11-18T00:57:22.975Z,0.65
2022-11-18T00:59:49.513Z,0.70
2022-11-18T01:02:16.327Z,0.60
2022-11-18T01:04:42.802Z,0.80
2022-11-18T01:07:09.316Z,0.70
2022-11-18T01:09:35.875Z,0.70
2022-11-18T01:12:20.923Z,0.68
2022-11-18T01:14:47.401Z,0.60
2022-11-18T01:17:13.870Z,0.70
2022-11-18T01:19:40.402Z,0.80
2022-11-18T01:22:06.853Z,0.70
2022-11-18T01:24:33.543Z,0.73
2022-11-18T01:27:01.061Z,0.70
2022-11-18T01:29:27.542Z,0.60
2022-11-18T01:32:22.825Z,0.60
2022-11-18T01:34:40.454Z,0.60
2022-11-18T01:37:06.974Z,0.60
2022-11-18T01:39:33.528Z,0.60
2022-11-18T01:42:00.064Z,0.60
2022-11-18T01:44:53.822Z,0.50
2022-11-18T01:47:20.294Z,0.65
2022-11-18T01:49:46.820Z,0.70
2022-11-18T01:52:13.292Z,0.55
2022-11-18T01:54:41.044Z,0.50
2022-11-18T01:57:12.741Z,0.70
2022-11-18T01:59:40.238Z,0.70
2022-11-18T02:02:10.350Z,0.50
2022-11-18T02:04:37.341Z,0.60
2022-11-18T02:07:03.882Z,0.47
2022-11-18T02:09:30.498Z,0.77
2022-11-18T02:11:57.106Z,0.70
2022-11-18T02:14:26.589Z,0.70
2022-11-18T02:16:56.020Z,0.75
2022-11-18T02:19:46.823Z,0.50
2022-11-18T02:22:47.332Z,0.70
2022-11-18T02:25:19.711Z,0.60
2022-11-18T02:28:14.181Z,0.70
2022-11-18T02:31:03.232Z,0.70
2022-11-18T02:33:29.571Z,0.50
2022-11-18T02:36:08.678Z,0.50
2022-11-18T02:38:38.479Z,0.75
2022-11-18T02:41:06.821Z,0.60
2022-11-18T02:43:58.812Z,0.60
2022-11-18T02:46:27.713Z,0.65
2022-11-18T02:48:54.200Z,0.70
2022-11-18T02:51:24.170Z,0.77
2022-11-18T02:53:50.667Z,0.75
2022-11-18T02:56:17.395Z,0.70
2022-11-18T02:58:44.187Z,0.80
2022-11-18T03:01:30.237Z,0.75
2022-11-18T03:03:56.874Z,0.70
2022-11-18T03:06:33.982Z,0.65
2022-11-18T03:09:03.299Z,0.60
2022-11-18T03:11:31.328Z,0.70
2022-11-18T03:14:19.286Z,0.40
2022-11-18T03:17:00.405Z,0.50
2022-11-18T03:19:53.187Z,0.77
2022-11-18T03:22:19.522Z,0.45
2022-11-18T03:24:50.592Z,0.50
2022-11-18T03:27:21.717Z,0.60
2022-11-18T03:29:51.131Z,0.60
2022-11-18T03:32:19.829Z,0.40
2022-11-18T03:34:48.461Z,0.50
2022-11-18T03:37:15.399Z,0.50
2022-11-18T03:39:44.358Z,6.50
2022-11-18T03:42:14.744Z,2.97
2022-11-18T03:44:47.144Z,3.55
2022-11-18T03:47:24.330Z,3.00
2022-11-18T03:49:56.252Z,3.63
2022-11-18T03:52:25.447Z,3.38
2022-11-18T03:54:52.913Z,3.75
2022-11-18T03:57:25.699Z,3.22
2022-11-18T04:00:02.722Z,3.83
2022-11-18T04:02:29.210Z,3.47
2022-11-18T04:04:56.464Z,4.03
2022-11-18T04:07:30.545Z,3.70
2022-11-18T04:09:59.632Z,3.60
2022-11-18T04:12:27.472Z,3.45
2022-11-18T04:14:55.463Z,3.88
2022-11-18T04:17:23.157Z,3.80
2022-11-18T04:19:49.659Z,3.30
2022-11-18T04:22:16.201Z,3.28
2022-11-18T04:24:42.670Z,3.70
2022-11-18T04:27:09.130Z,3.28
2022-11-18T04:29:35.610Z,3.47
2022-11-18T04:32:02.125Z,3.60
2022-11-18T04:34:28.760Z,3.35
2022-11-18T04:36:55.291Z,4.07
2022-11-18T04:39:21.790Z,3.55
2022-11-18T04:41:57.284Z,3.40
2022-11-18T04:44:33.208Z,3.22
2022-11-18T04:47:01.861Z,3.33
2022-11-18T04:49:28.484Z,3.20
2022-11-18T04:51:55.260Z,2.97
2022-11-18T04:54:22.007Z,2.90
2022-11-18T04:56:49.744Z,2.60
2022-11-18T04:59:18.473Z,3.10
2022-11-18T05:01:45.406Z,2.85
2022-11-18T05:04:13.199Z,2.60
2022-11-18T05:06:39.687Z,3.10
2022-11-18T05:09:06.184Z,2.45
2022-11-18T05:11:51.307Z,2.45
2022-11-18T05:14:17.767Z,2.38
2022-11-18T05:16:44.768Z,2.58
2022-11-18T05:19:11.280Z,2.42
2022-11-18T05:21:37.843Z,2.30
2022-11-18T05:24:04.950Z,2.20
2022-11-18T05:26:31.515Z,2.50
2022-11-18T05:28:57.965Z,2.30
2022-11-18T05:31:24.438Z,2.22
2022-11-18T05:33:50.943Z,2.30
2022-11-18T05:36:18.639Z,2.38
2022-11-18T05:38:45.125Z,2.00
2022-11-18T05:41:31.672Z,2.75
2022-11-18T05:43:58.546Z,2.10
2022-11-18T05:46:25.276Z,1.85
2022-11-18T05:48:51.745Z,1.77
2022-11-18T05:51:18.309Z,1.75
2022-11-18T05:53:44.796Z,1.83
2022-11-18T05:56:30.175Z,2.08
2022-11-18T05:58:56.671Z,1.90
2022-11-18T06:01:29.782Z,1.80
2022-11-18T06:03:56.239Z,1.60
2022-11-18T06:06:22.997Z,1.70
2022-11-18T06:08:55.991Z,1.73
2022-11-18T06:11:22.478Z,1.35
2022-11-18T06:14:01.218Z,1.48
2022-11-18T06:16:28.596Z,1.90
2022-11-18T06:18:55.072Z,1.52
2022-11-18T06:21:21.543Z,1.80
2022-11-18T06:23:48.017Z,1.50
2022-11-18T06:26:15.523Z,1.63
2022-11-18T06:28:42.289Z,1.45
2022-11-18T06:31:08.810Z,1.60
2022-11-18T06:33:35.315Z,1.88
2022-11-18T06:36:01.794Z,1.20
2022-11-18T06:38:28.401Z,1.73
2022-11-18T06:40:59.065Z,1.52
2022-11-18T06:43:43.648Z,1.40
2022-11-18T06:46:33.239Z,1.50
2022-11-18T06:48:59.884Z,1.75
2022-11-18T06:51:26.452Z,1.20
2022-11-18T06:53:52.987Z,1.60
2022-11-18T06:56:20.037Z,1.50
2022-11-18T06:58:46.597Z,1.42
2022-11-18T07:01:15.007Z,1.30
2022-11-18T07:03:41.915Z,1.48
2022-11-18T07:06:08.834Z,1.50
2022-11-18T07:08:37.134Z,1.60
2022-11-18T07:11:05.358Z,1.45
2022-11-18T07:13:37.025Z,1.30
2022-11-18T07:16:09.491Z,1.15
2022-11-18T07:18:37.643Z,1.50
2022-11-18T07:21:04.939Z,1.20
2022-11-18T07:23:31.828Z,1.30
2022-11-18T07:25:58.447Z,1.10
2022-11-18T07:28:25.067Z,1.10
2022-11-18T07:30:51.634Z,1.40
2022-11-18T07:33:18.159Z,1.33
2022-11-18T07:35:44.664Z,1.42
2022-11-18T07:38:11.224Z,1.73
2022-11-18T07:40:37.708Z,1.80
2022-11-18T07:43:04.185Z,1.65
2022-11-18T07:45:30.679Z,1.90
2022-11-18T07:47:57.140Z,1.92
2022-11-18T07:50:23.656Z,2.20
2022-11-18T07:52:50.149Z,2.13
2022-11-18T07:55:16.646Z,2.30
2022-11-18T07:57:43.139Z,1.90
2022-11-18T08:00:10.296Z,2.45
2022-11-18T08:02:36.759Z,2.10
2022-11-18T08:05:03.332Z,2.22
2022-11-18T08:07:29.970Z,1.92
2022-11-18T08:09:56.518Z,2.00
2022-11-18T08:12:22.980Z,2.00
2022-11-18T08:14:49.511Z,1.95
2022-11-18T08:17:15.976Z,1.83
2022-11-18T08:19:42.469Z,1.83
2022-11-18T08:22:08.934Z,2.13
2022-11-18T08:24:36.647Z,1.98
2022-11-18T08:27:03.139Z,2.08
2022-11-18T08:29:29.966Z,1.70
2022-11-18T08:31:56.620Z,1.70
2022-11-18T08:34:23.078Z,1.80
2022-11-18T08:36:49.595Z,1.75
2022-11-18T08:39:16.412Z,1.98
2022-11-18T08:41:43.363Z,1.95
2022-11-18T08:44:14.155Z,1.65
2022-11-18T08:46:41.319Z,1.83
2022-11-18T08:49:07.785Z,1.90
2022-11-18T08:51:34.259Z,1.55
2022-11-18T08:54:00.726Z,1.70
2022-11-18T08:56:27.250Z,1.70
2022-11-18T08:58:54.248Z,1.70
2022-11-18T09:01:20.843Z,1.77
2022-11-18T09:03:48.441Z,1.80
2022-11-18T09:06:19.896Z,1.75
2022-11-18T09:08:46.459Z,1.70
2022-11-18T09:11:17.494Z,1.58
2022-11-18T09:14:14.221Z,1.45
2022-11-18T09:16:31.694Z,1.45
2022-11-18T09:19:02.069Z,1.70
2022-11-18T09:21:40.904Z,1.65
2022-11-18T09:24:07.896Z,1.65
2022-11-18T09:26:34.442Z,1.45
2022-11-18T09:29:00.970Z,1.40
2022-11-18T09:31:27.593Z,1.90
2022-11-18T09:33:54.054Z,1.70
2022-11-18T09:36:22.226Z,1.42
2022-11-18T09:38:53.061Z,1.85
2022-11-18T09:41:26.018Z,1.85
2022-11-18T09:44:17.548Z,1.40
2022-11-18T09:47:29.550Z,1.70
2022-11-18T09:49:57.399Z,1.80
2022-11-18T09:52:48.820Z,1.80
2022-11-18T09:55:16.339Z,1.63
2022-11-18T09:57:46.730Z,1.67
2022-11-18T10:00:20.719Z,1.67
2022-11-18T10:05:45.344Z,1.60
2022-11-18T10:08:30.526Z,1.60
2022-11-18T10:11:17.256Z,1.42
2022-11-18T10:14:11.391Z,1.67
2022-11-18T10:16:52.750Z,1.50
2022-11-18T10:19:43.103Z,1.73
2022-11-18T10:22:29.598Z,1.70
2022-11-18T10:24:56.677Z,1.60
2022-11-18T10:27:26.197Z,1.55
2022-11-18T10:29:54.196Z,1.50
2022-11-18T10:32:20.758Z,1.60
2022-11-18T10:34:51.583Z,1.73
2022-11-18T10:38:05.657Z,1.73
2022-11-18T10:40:26.453Z,1.75
2022-11-18T10:42:52.928Z,1.65
2022-11-18T10:45:22.270Z,1.70
2022-11-18T10:48:16.413Z,1.55
2022-11-18T10:50:44.589Z,1.50
2022-11-18T10:53:31.198Z,1.80
2022-11-18T10:56:01.320Z,1.67
2022-11-18T10:58:29.755Z,1.83
2022-11-18T11:01:16.047Z,1.60
2022-11-18T11:03:42.586Z,1.92
2022-11-18T11:06:27.230Z,2.10
2022-11-18T11:08:56.098Z,1.90
2022-11-18T11:11:59.998Z,1.77
2022-11-18T11:14:37.577Z,1.70
2022-11-18T11:17:27.715Z,1.70
2022-11-18T11:20:15.400Z,1.77
2022-11-18T11:22:42.428Z,1.60
2022-11-18T11:25:16.675Z,1.70
2022-11-18T11:30:38.787Z,1.50
2022-11-18T11:33:39.493Z,1.67
2022-11-18T11:36:24.615Z,1.30
2022-11-18T11:39:11.729Z,1.65
2022-11-18T11:42:03.007Z,1.67
2022-11-18T11:44:49.030Z,1.50
2022-11-18T11:47:43.132Z,1.55
2022-11-18T11:51:04.442Z,1.63
2022-11-18T11:53:55.483Z,1.50
2022-11-18T11:56:42.394Z,1.70
2022-11-18T11:59:13.918Z,1.30
2022-11-18T12:01:44.034Z,1.30
2022-11-18T12:04:31.719Z,1.33
2022-11-18T12:06:58.259Z,1.40
2022-11-18T12:09:33.808Z,1.45
2022-11-18T12:12:32.346Z,1.58
2022-11-18T12:15:16.889Z,1.30
2022-11-18T12:18:12.178Z,1.60
2022-11-18T12:20:48.388Z,1.70
2022-11-18T12:23:18.849Z,3.03
2022-11-18T12:25:48.320Z,2.90
2022-11-18T12:28:26.035Z,2.60
2022-11-18T12:31:18.767Z,2.40
2022-11-18T12:33:55.234Z,2.30
2022-11-18T12:36:28.796Z,2.40
2022-11-18T12:38:55.658Z,2.70
2022-11-18T12:41:59.100Z,2.22
2022-11-18T12:44:26.884Z,2.55
2022-11-18T12:47:00.254Z,2.40
2022-11-18T12:49:26.603Z,2.17
2022-11-18T12:51:56.824Z,2.10
2022-11-18T12:54:23.167Z,1.90
2022-11-18T12:56:49.689Z,2.42
2022-11-18T12:59:16.381Z,1.83
2022-11-18T13:01:43.003Z,1.83
2022-11-18T13:04:12.611Z,2.00
2022-11-18T13:06:39.215Z,2.00
2022-11-18T13:09:13.102Z,2.10
2022-11-18T13:11:54.331Z,2.15
2022-11-18T13:14:44.652Z,2.00
2022-11-18T13:17:43.139Z,2.20
2022-11-18T13:20:39.483Z,2.15
2022-11-18T13:23:30.617Z,1.80
2022-11-18T13:26:04.082Z,1.80
2022-11-18T13:28:47.750Z,1.50
2022-11-18T13:31:26.505Z,1.80
2022-11-18T13:33:53.006Z,1.98
2022-11-18T13:36:23.361Z,2.00
2022-11-18T13:38:57.447Z,1.70
2022-11-18T13:43:54.002Z,1.60
2022-11-18T13:46:20.818Z,1.90
2022-11-18T13:48:51.686Z,1.65
2022-11-18T13:51:18.160Z,1.80
2022-11-18T13:53:44.703Z,1.60
2022-11-18T13:56:23.434Z,1.50
2022-11-18T14:01:36.224Z,1.67
2022-11-18T14:04:07.330Z,1.80
2022-11-18T14:06:35.143Z,1.73
2022-11-18T14:09:07.669Z,1.50
2022-11-18T14:11:38.582Z,1.63
2022-11-18T14:14:05.093Z,1.52
2022-11-18T14:16:38.259Z,1.33
2022-11-18T14:19:05.449Z,1.60
2022-11-18T14:21:33.454Z,1.42
2022-11-18T14:24:00.022Z,1.48
2022-11-18T14:26:35.366Z,1.60
2022-11-18T14:29:13.188Z,1.48
2022-11-18T14:31:39.645Z,1.80
2022-11-18T14:34:21.184Z,1.60
2022-11-18T14:36:47.707Z,1.60
2022-11-18T14:39:27.757Z,1.55
2022-11-18T14:41:54.299Z,1.80
2022-11-18T14:44:21.809Z,1.60
2022-11-18T14:46:53.379Z,1.20
2022-11-18T14:49:22.240Z,1.48
2022-11-18T14:51:48.999Z,3.00
2022-11-18T14:54:20.776Z,2.28
2022-11-18T14:56:50.498Z,1.40
2022-11-18T14:59:18.174Z,1.70
2022-11-18T15:01:44.890Z,1.40
2022-11-18T15:04:11.428Z,1.48
2022-11-18T15:06:37.954Z,2.60
2022-11-18T15:09:05.160Z,1.40
2022-11-18T15:11:31.655Z,2.00
2022-11-18T15:13:58.117Z,2.22
2022-11-18T15:16:26.726Z,2.70
2022-11-18T15:19:00.476Z,2.17
2022-11-18T15:21:27.129Z,2.45
2022-11-18T15:23:54.688Z,2.55
2022-11-18T15:26:25.537Z,2.28
2022-11-18T15:28:53.586Z,2.17
2022-11-18T15:31:20.088Z,2.05
2022-11-18T15:33:46.661Z,1.98
2022-11-18T15:36:14.165Z,1.77
2022-11-18T15:38:41.182Z,1.52
2022-11-18T15:41:12.178Z,1.67
2022-11-18T15:43:38.662Z,1.90
2022-11-18T15:46:05.329Z,1.50
2022-11-18T15:48:31.815Z,1.50
2022-11-18T15:50:58.298Z,1.50
2022-11-18T15:53:24.768Z,1.70
2022-11-18T15:55:51.281Z,1.48
2022-11-18T15:58:17.775Z,1.52
2022-11-18T16:00:45.161Z,1.38
2022-11-18T16:03:11.920Z,1.50
2022-11-18T16:05:38.383Z,1.20
2022-11-18T16:08:05.009Z,1.65
2022-11-18T16:10:49.838Z,1.55
2022-11-18T16:13:20.873Z,1.20
2022-11-18T16:15:50.105Z,1.40
2022-11-18T16:18:17.851Z,1.40
2022-11-18T16:20:44.302Z,1.45
2022-11-18T16:23:10.806Z,1.40
2022-11-18T16:25:41.967Z,1.38
2022-11-18T16:28:08.485Z,1.30
2022-11-18T16:30:53.212Z,1.40
2022-11-18T16:33:19.700Z,1.25
2022-11-18T16:35:47.629Z,1.88
2022-11-18T16:38:14.261Z,1.67
2022-11-18T16:40:40.748Z,2.92
2022-11-18T16:43:07.250Z,2.88
2022-11-18T16:45:33.707Z,3.33
2022-11-18T16:48:00.173Z,3.08
2022-11-18T16:50:26.682Z,3.63
2022-11-18T16:52:53.164Z,3.80
2022-11-18T16:55:19.615Z,3.17
2022-11-18T16:57:46.125Z,3.80
2022-11-18T17:00:12.981Z,3.53
2022-11-18T17:02:39.474Z,2.90
2022-11-18T17:05:06.473Z,3.20
2022-11-18T17:07:38.291Z,3.13
2022-11-18T17:13:57.739Z,3.05
2022-11-18T17:16:24.856Z,3.50
2022-11-18T17:18:58.392Z,3.50
2022-11-18T17:21:25.022Z,3.15
2022-11-18T17:23:51.608Z,3.00
2022-11-18T17:26:20.517Z,2.90
2022-11-18T17:28:47.036Z,2.80
2022-11-18T17:31:15.270Z,2.92
2022-11-18T17:33:42.625Z,2.88
2022-11-18T17:36:10.926Z,2.80
2022-11-18T17:38:38.817Z,2.40
2022-11-18T17:41:05.640Z,2.90
2022-11-18T17:43:32.127Z,2.80
2022-11-18T17:46:00.075Z,2.85
2022-11-18T17:48:27.285Z,2.63
2022-11-18T17:50:53.837Z,2.35
2022-11-18T17:53:20.394Z,2.45
2022-11-18T17:55:47.015Z,2.15
2022-11-18T17:58:13.607Z,2.45
2022-11-18T18:00:40.257Z,2.38
2022-11-18T18:03:06.764Z,2.70
2022-11-18T18:05:33.325Z,2.17
2022-11-18T18:07:59.837Z,2.60
2022-11-18T18:10:27.734Z,2.40
2022-11-18T18:13:12.794Z,2.15
2022-11-18T18:15:39.268Z,2.20
2022-11-18T18:18:06.408Z,2.60
2022-11-18T18:20:33.860Z,2.42
2022-11-18T18:23:00.358Z,2.00
2022-11-18T18:25:26.816Z,2.30
2022-11-18T18:27:53.283Z,2.30
2022-11-18T18:30:19.798Z,2.28
2022-11-18T18:32:52.045Z,2.22
2022-11-18T18:35:19.066Z,2.30
2022-11-18T18:37:45.522Z,2.13
2022-11-18T18:40:13.622Z,2.30
2022-11-18T18:42:40.082Z,2.10
2022-11-18T18:45:25.424Z,2.25
2022-11-18T18:47:51.909Z,2.30
2022-11-18T18:50:18.700Z,2.15
2022-11-18T18:52:45.163Z,1.88
2022-11-18T18:55:11.662Z,1.85
2022-11-18T18:57:38.120Z,2.00
2022-11-18T19:00:05.094Z,2.00
2022-11-18T19:02:31.586Z,2.20
2022-11-18T19:04:59.771Z,1.90
2022-11-18T19:07:27.839Z,2.00
2022-11-18T19:09:54.498Z,2.20
2022-11-18T19:12:39.529Z,2.10
2022-11-18T19:15:06.414Z,2.50
2022-11-18T19:17:32.927Z,2.30
2022-11-18T19:20:17.840Z,2.40
2022-11-18T19:22:44.391Z,2.30
2022-11-18T19:25:10.919Z,2.17
2022-11-18T19:27:39.953Z,2.00
2022-11-18T19:30:07.603Z,2.20
2022-11-18T19:32:37.753Z,2.30
2022-11-18T19:35:05.348Z,2.53
2022-11-18T19:37:32.180Z,2.63
2022-11-18T19:40:05.626Z,2.05
2022-11-18T19:42:39.377Z,2.08
2022-11-18T19:45:06.690Z,1.92
2022-11-18T19:47:33.250Z,2.10
2022-11-18T19:49:59.740Z,1.90
2022-11-18T19:52:26.238Z,1.75
2022-11-18T19:54:52.766Z,2.25
2022-11-18T19:57:19.256Z,2.00
2022-11-18T19:59:46.405Z,2.40
2022-11-18T20:02:12.947Z,2.17
2022-11-18T20:04:39.463Z,2.20
2022-11-18T20:07:05.988Z,1.90
2022-11-18T20:09:32.536Z,2.28
2022-11-18T20:11:58.997Z,2.15
2022-11-18T20:14:25.480Z,2.35
2022-11-18T20:16:52.033Z,2.28
2022-11-18T20:19:18.904Z,2.22
2022-11-18T20:21:47.780Z,2.20
2022-11-18T20:24:16.032Z,1.95
2022-11-18T20:26:42.755Z,2.33
2022-11-18T20:29:09.312Z,1.90
2022-11-18T20:31:36.512Z,2.03
2022-11-18T20:34:03.225Z,2.17
2022-11-18T20:36:31.488Z,2.47
2022-11-18T20:39:17.656Z,2.08
2022-11-18T20:42:04.524Z,2.08
2022-11-18T20:44:31.095Z,2.35
2022-11-18T20:46:57.562Z,2.30
2022-11-18T20:49:24.055Z,2.10
2022-11-18T20:51:50.516Z,2.13
2022-11-18T20:54:16.990Z,2.30
2022-11-18T20:56:43.446Z,2.13
2022-11-18T20:59:09.963Z,2.17
2022-11-18T21:01:36.522Z,2.13
2022-11-18T21:04:03.554Z,2.40
2022-11-18T21:06:31.121Z,2.03
2022-11-18T21:09:02.529Z,1.90
2022-11-18T21:11:29.152Z,1.70
2022-11-18T21:14:18.397Z,2.00
2022-11-18T21:16:48.306Z,2.15
2022-11-18T21:19:14.878Z,2.10
2022-11-18T21:21:52.517Z,1.90
2022-11-18T21:24:29.368Z,1.95
2022-11-18T21:26:56.534Z,2.10
2022-11-18T21:29:24.426Z,2.40
2022-11-18T21:31:50.947Z,1.90
2022-11-18T21:34:17.607Z,1.95
2022-11-18T21:36:47.855Z,2.00
2022-11-18T21:39:15.757Z,1.92
2022-11-18T21:41:42.512Z,2.25
2022-11-18T21:44:10.049Z,2.17
2022-11-18T21:46:37.125Z,2.00
2022-11-18T21:49:04.139Z,2.20
2022-11-18T21:51:33.535Z,2.35
2022-11-18T21:54:00.329Z,2.15
2022-11-18T21:56:33.286Z,2.15
2022-11-18T21:59:00.812Z,2.10
2022-11-18T22:01:31.923Z,1.98
2022-11-18T22:03:59.978Z,2.00
2022-11-18T22:06:29.621Z,2.35
2022-11-18T22:08:56.500Z,2.40
2022-11-18T22:11:23.417Z,2.10
2022-11-18T22:13:51.252Z,2.08
2022-11-18T22:16:18.696Z,2.17
2022-11-18T22:18:45.924Z,2.30
2022-11-18T22:21:14.260Z,2.08
2022-11-18T22:23:40.882Z,2.38
2022-11-18T22:26:10.831Z,2.60
2022-11-18T22:28:37.511Z,2.40
2022-11-18T22:31:09.938Z,2.33
2022-11-18T22:33:36.471Z,2.30
2022-11-18T22:36:04.043Z,2.30
2022-11-18T22:38:30.519Z,2.20
2022-11-18T22:41:04.115Z,2.17
2022-11-18T22:43:31.300Z,2.00
2022-11-18T22:46:02.065Z,2.35
2022-11-18T22:48:28.757Z,2.53
2022-11-18T22:50:59.794Z,3.47
2022-11-18T22:53:27.057Z,2.80
2022-11-18T22:56:01.445Z,2.30
2022-11-18T22:58:27.958Z,2.15
2022-11-18T23:00:54.237Z,2.40
2022-11-18T23:03:20.714Z,2.30
2022-11-18T23:05:47.233Z,2.17
2022-11-18T23:08:13.555Z,2.38
2022-11-18T23:10:40.038Z,2.40
2022-11-18T23:13:25.167Z,2.35
2022-11-18T23:15:51.634Z,2.60
2022-11-18T23:18:18.100Z,2.70
2022-11-18T23:20:44.575Z,2.38
2022-11-18T23:23:11.034Z,2.30
2022-11-18T23:25:37.631Z,2.45
2022-11-18T23:28:04.315Z,2.47
2022-11-18T23:30:30.799Z,2.35
2022-11-18T23:32:57.247Z,2.38
2022-11-18T23:35:24.517Z,2.33
2022-11-18T23:37:50.987Z,2.28
2022-11-18T23:40:17.657Z,2.67
2022-11-18T23:42:44.181Z,2.53
2022-11-18T23:45:10.794Z,2.35
2022-11-18T23:47:37.259Z,2.42
2022-11-18T23:50:03.854Z,2.60
2022-11-18T23:52:30.320Z,2.40
2022-11-18T23:54:57.559Z,2.50
2022-11-18T23:57:24.077Z,2.45
2022-11-18T23:59:50.554Z,2.50
